Amalia, NM

12:47 PM MDT on September 01, 2014 (GMT -0600)
RAWS WILD RIVERS NM US | Change Station
CLOSE
Current Station
Personal Weather Station
Location: Questa, NM
Elevation: 7529 ft
Nearby Weather Stations

Elev 7529 ft 36.69 °N, 105.67 °W | Updated 58 minutes ago

Clear
Clear
78 °F
Feels Like 78 °F
N
12
Wind Variable Wind from SSW
Gusts 21.0 mph

Today
High -- | Low -- °F
--% Chance of Precip.
Yesterday
High -- | Low -- °F
Precip. -- in
6:33 AM 7:30 PM
Waxing Crescent, 43% visible
Pressure 30.29 in
Visibility 10.0 miles
Clouds Clear
Heat Index 78 °F
Dew Point 35 °F
Humidity 21%
Rainfall 0.00 in
Snow Depth Not available.
UV 11 out of 12
Pollen 10.10 out of 12
Air Quality Not available.
Flu Activity Not available.
METAR KAXX 011835Z AUTO 27013G26KT 10SM CLR 22/01 A3029 RMK AO2 T02170005

More Conditions Fewer Conditions

Pressure 30.29 in
Visibility 10.0 miles
Clouds Clear
Heat Index 78 °F
Dew Point 35 °F
Humidity 21%
Rainfall 0.00 in
Snow Depth Not available.
UV 11 out of 12
Pollen 10.10 out of 12
Air Quality Not available.
Flu Activity Not available.
METAR KAXX 011835Z AUTO 27013G26KT 10SM CLR 22/01 A3029 RMK AO2 T02170005

More Conditions Fewer Conditions

10-Day Weather Forecast

Almanac

Astronomy

Sep. 01, 2014 Rise Set
Actual Time 6:33 AM MDT 7:30 PM MDT
Civil Twilight 6:06 AM MDT 7:56 PM MDT
Nautical Twilight 5:35 AM MDT 8:28 PM MDT
Astronomical Twilight 5:02 AM MDT 9:00 PM MDT
Moon 1:11 PM MDT 11:44 PM MDT
Length of Visible Light 13h 50m
Length of Day
12h 57m
Tomorrow will be 2m 16s shorter.
Waxing Crescent, 43% of the Moon is Illuminated
Today
Waxing Crescent
Sep 2
First Quarter
Sep 8
Full
Sep 15
Last Quarter
Sep 24
New

Today's Extremes

State Highs State Lows

Community

WunderPhotos

Upload Photos

1,749,359 photos uploaded!

Nearby

Snow Depth

Station Depth Elevation
Red River Pass #2 0 in 9850 ft
Wesner Springs 0 in 11120 ft
Santa Fe 1 in 11445 ft
Quemazon 0 in 9500 ft
Sierra Blanca 1 in 10280 ft

Earthquake Activity

City Distance Mag. Time & Date
Trinidad, Colorado 40 miles 2.7 4:20 AM MDT
2014-08-31
Minimum magnitude displayed is 2.5.

Coastal Water Temperatures

Place Temperature
No Stations Reporting

Nearby Weather Stations